sensor_id;sensor_type;location;lat;lon;timestamp;pressure;altitude;pressure_sealevel;temperature
22322;BMP180;11328;53.928;18.522;2023-02-23T00:02:02;100652.00;;;3.00
22322;BMP180;11328;53.928;18.522;2023-02-23T00:04:33;100642.00;;;2.90
22322;BMP180;11328;53.928;18.522;2023-02-23T00:07:01;100611.00;;;2.90
22322;BMP180;11328;53.928;18.522;2023-02-23T00:09:28;100645.00;;;2.80
22322;BMP180;11328;53.928;18.522;2023-02-23T00:12:04;100638.00;;;2.80
22322;BMP180;11328;53.928;18.522;2023-02-23T00:14:35;100634.00;;;2.70
22322;BMP180;11328;53.928;18.522;2023-02-23T00:17:04;100636.00;;;2.70
22322;BMP180;11328;53.928;18.522;2023-02-23T00:19:36;100629.00;;;2.70
22322;BMP180;11328;53.928;18.522;2023-02-23T00:22:03;100630.00;;;2.70
22322;BMP180;11328;53.928;18.522;2023-02-23T00:24:30;100621.00;;;2.30
22322;BMP180;11328;53.928;18.522;2023-02-23T00:26:57;100623.00;;;2.60
22322;BMP180;11328;53.928;18.522;2023-02-23T00:29:24;100620.00;;;2.50
22322;BMP180;11328;53.928;18.522;2023-02-23T00:31:51;100625.00;;;2.50
22322;BMP180;11328;53.928;18.522;2023-02-23T00:34:20;100580.00;;;2.50
22322;BMP180;11328;53.928;18.522;2023-02-23T00:36:52;100619.00;;;2.50
22322;BMP180;11328;53.928;18.522;2023-02-23T00:39:22;100621.00;;;2.40
22322;BMP180;11328;53.928;18.522;2023-02-23T00:41:55;100618.00;;;2.40
22322;BMP180;11328;53.928;18.522;2023-02-23T00:44:28;100626.00;;;2.30
22322;BMP180;11328;53.928;18.522;2023-02-23T00:46:55;100621.00;;;2.30
22322;BMP180;11328;53.928;18.522;2023-02-23T00:49:22;100623.00;;;2.30
22322;BMP180;11328;53.928;18.522;2023-02-23T00:51:49;100626.00;;;2.30
22322;BMP180;11328;53.928;18.522;2023-02-23T00:54:20;100629.00;;;2.20
22322;BMP180;11328;53.928;18.522;2023-02-23T00:56:48;100616.00;;;2.20
22322;BMP180;11328;53.928;18.522;2023-02-23T00:59:15;100612.00;;;2.20
22322;BMP180;11328;53.928;18.522;2023-02-23T01:01:43;100618.00;;;2.20
22322;BMP180;11328;53.928;18.522;2023-02-23T01:04:11;100621.00;;;2.20
22322;BMP180;11328;53.928;18.522;2023-02-23T01:06:40;100608.00;;;2.20
22322;BMP180;11328;53.928;18.522;2023-02-23T01:09:15;100615.00;;;2.10
22322;BMP180;11328;53.928;18.522;2023-02-23T01:11:47;100609.00;;;2.10
22322;BMP180;11328;53.928;18.522;2023-02-23T01:14:14;100611.00;;;2.00
22322;BMP180;11328;53.928;18.522;2023-02-23T01:16:41;100612.00;;;2.00
22322;BMP180;11328;53.928;18.522;2023-02-23T01:19:09;100606.00;;;2.00
22322;BMP180;11328;53.928;18.522;2023-02-23T01:21:40;100609.00;;;2.00
22322;BMP180;11328;53.928;18.522;2023-02-23T01:24:08;100596.00;;;2.00
22322;BMP180;11328;53.928;18.522;2023-02-23T01:26:45;100597.00;;;1.90
22322;BMP180;11328;53.928;18.522;2023-02-23T01:29:15;100600.00;;;1.90
22322;BMP180;11328;53.928;18.522;2023-02-23T01:31:46;100599.00;;;1.90
22322;BMP180;11328;53.928;18.522;2023-02-23T01:34:14;100601.00;;;1.80
22322;BMP180;11328;53.928;18.522;2023-02-23T01:36:43;100595.00;;;1.80
22322;BMP180;11328;53.928;18.522;2023-02-23T01:39:14;100593.00;;;1.80
22322;BMP180;11328;53.928;18.522;2023-02-23T01:41:42;100591.00;;;1.80
22322;BMP180;11328;53.928;18.522;2023-02-23T01:46:43;100594.00;;;1.80
22322;BMP180;11328;53.928;18.522;2023-02-23T01:49:16;100587.00;;;1.70
22322;BMP180;11328;53.928;18.522;2023-02-23T01:51:51;100574.00;;;1.70
22322;BMP180;11328;53.928;18.522;2023-02-23T01:54:27;100578.00;;;1.60
22322;BMP180;11328;53.928;18.522;2023-02-23T01:57:00;100572.00;;;1.50
22322;BMP180;11328;53.928;18.522;2023-02-23T01:59:37;100569.00;;;1.50
22322;BMP180;11328;53.928;18.522;2023-02-23T02:02:05;100563.00;;;1.50
22322;BMP180;11328;53.928;18.522;2023-02-23T02:04:39;100561.00;;;1.50
22322;BMP180;11328;53.928;18.522;2023-02-23T02:07:19;100557.00;;;1.50
22322;BMP180;11328;53.928;18.522;2023-02-23T02:09:53;100543.00;;;1.40
22322;BMP180;11328;53.928;18.522;2023-02-23T02:12:40;100554.00;;;1.40
22322;BMP180;11328;53.928;18.522;2023-02-23T02:15:09;100549.00;;;1.30
22322;BMP180;11328;53.928;18.522;2023-02-23T02:24:32;100541.00;;;1.30
22322;BMP180;11328;53.928;18.522;2023-02-23T02:27:27;100552.00;;;1.30
22322;BMP180;11328;53.928;18.522;2023-02-23T02:40:05;100546.00;;;1.20
22322;BMP180;11328;53.928;18.522;2023-02-23T02:43:18;100554.00;;;1.30
22322;BMP180;11328;53.928;18.522;2023-02-23T02:46:12;100550.00;;;1.30
22322;BMP180;11328;53.928;18.522;2023-02-23T02:49:02;100557.00;;;1.20
22322;BMP180;11328;53.928;18.522;2023-02-23T02:52:03;100549.00;;;1.20
22322;BMP180;11328;53.928;18.522;2023-02-23T02:54:53;100550.00;;;1.20
22322;BMP180;11328;53.928;18.522;2023-02-23T02:57:26;100531.00;;;1.10
22322;BMP180;11328;53.928;18.522;2023-02-23T02:59:56;100538.00;;;1.10
22322;BMP180;11328;53.928;18.522;2023-02-23T03:02:42;100539.00;;;1.10
22322;BMP180;11328;53.928;18.522;2023-02-23T03:05:54;100534.00;;;1.10
22322;BMP180;11328;53.928;18.522;2023-02-23T03:09:41;100539.00;;;1.10
22322;BMP180;11328;53.928;18.522;2023-02-23T03:19:18;100534.00;;;1.00
22322;BMP180;11328;53.928;18.522;2023-02-23T03:22:31;100531.00;;;1.00
22322;BMP180;11328;53.928;18.522;2023-02-23T03:28:38;100513.00;;;1.00
22322;BMP180;11328;53.928;18.522;2023-02-23T03:31:53;100526.00;;;1.00
22322;BMP180;11328;53.928;18.522;2023-02-23T03:35:20;100527.00;;;1.10
22322;BMP180;11328;53.928;18.522;2023-02-23T03:38:27;100492.00;;;1.00
22322;BMP180;11328;53.928;18.522;2023-02-23T03:41:16;100491.00;;;1.00
22322;BMP180;11328;53.928;18.522;2023-02-23T03:44:16;100525.00;;;1.00
22322;BMP180;11328;53.928;18.522;2023-02-23T03:47:05;100507.00;;;1.00
22322;BMP180;11328;53.928;18.522;2023-02-23T03:49:53;100528.00;;;1.10
22322;BMP180;11328;53.928;18.522;2023-02-23T03:52:52;100527.00;;;1.10
22322;BMP180;11328;53.928;18.522;2023-02-23T03:55:42;100514.00;;;1.10
22322;BMP180;11328;53.928;18.522;2023-02-23T03:58:46;100525.00;;;1.10
22322;BMP180;11328;53.928;18.522;2023-02-23T04:01:36;100515.00;;;1.20
22322;BMP180;11328;53.928;18.522;2023-02-23T04:04:24;100507.00;;;1.10
22322;BMP180;11328;53.928;18.522;2023-02-23T04:07:17;100511.00;;;1.10
22322;BMP180;11328;53.928;18.522;2023-02-23T04:10:05;100470.00;;;1.10
22322;BMP180;11328;53.928;18.522;2023-02-23T04:13:12;100505.00;;;1.10
22322;BMP180;11328;53.928;18.522;2023-02-23T04:16:00;100501.00;;;1.10
22322;BMP180;11328;53.928;18.522;2023-02-23T04:18:34;100497.00;;;1.00
22322;BMP180;11328;53.928;18.522;2023-02-23T04:21:03;100502.00;;;1.10
22322;BMP180;11328;53.928;18.522;2023-02-23T04:23:31;100489.00;;;1.10
22322;BMP180;11328;53.928;18.522;2023-02-23T04:25:58;100506.00;;;1.10
22322;BMP180;11328;53.928;18.522;2023-02-23T04:28:27;100468.00;;;1.10
22322;BMP180;11328;53.928;18.522;2023-02-23T04:30:53;100485.00;;;1.00
22322;BMP180;11328;53.928;18.522;2023-02-23T04:33:21;100479.00;;;1.00
22322;BMP180;11328;53.928;18.522;2023-02-23T04:35:52;100482.00;;;1.00
22322;BMP180;11328;53.928;18.522;2023-02-23T04:38:21;100480.00;;;1.00
22322;BMP180;11328;53.928;18.522;2023-02-23T04:40:48;100479.00;;;1.00
22322;BMP180;11328;53.928;18.522;2023-02-23T04:43:15;100462.00;;;1.00
22322;BMP180;11328;53.928;18.522;2023-02-23T04:45:43;100481.00;;;0.90
22322;BMP180;11328;53.928;18.522;2023-02-23T04:48:10;100472.00;;;0.90
22322;BMP180;11328;53.928;18.522;2023-02-23T04:50:37;100468.00;;;0.90
22322;BMP180;11328;53.928;18.522;2023-02-23T04:53:05;100475.00;;;0.90
22322;BMP180;11328;53.928;18.522;2023-02-23T04:55:32;100463.00;;;0.90
22322;BMP180;11328;53.928;18.522;2023-02-23T04:58:01;100472.00;;;1.00
22322;BMP180;11328;53.928;18.522;2023-02-23T05:00:29;100429.00;;;1.00
22322;BMP180;11328;53.928;18.522;2023-02-23T05:02:56;100463.00;;;1.00
22322;BMP180;11328;53.928;18.522;2023-02-23T05:05:24;100414.00;;;1.00
22322;BMP180;11328;53.928;18.522;2023-02-23T05:07:51;100427.00;;;0.90
22322;BMP180;11328;53.928;18.522;2023-02-23T05:10:19;100459.00;;;0.90
22322;BMP180;11328;53.928;18.522;2023-02-23T05:12:46;100451.00;;;0.90
22322;BMP180;11328;53.928;18.522;2023-02-23T05:15:13;100449.00;;;0.80
22322;BMP180;11328;53.928;18.522;2023-02-23T05:17:43;100455.00;;;0.80
22322;BMP180;11328;53.928;18.522;2023-02-23T05:20:12;100449.00;;;0.90
22322;BMP180;11328;53.928;18.522;2023-02-23T05:22:40;100440.00;;;0.80
22322;BMP180;11328;53.928;18.522;2023-02-23T05:25:08;100434.00;;;0.90
22322;BMP180;11328;53.928;18.522;2023-02-23T05:27:36;100434.00;;;0.90
22322;BMP180;11328;53.928;18.522;2023-02-23T05:30:05;100434.00;;;1.00
22322;BMP180;11328;53.928;18.522;2023-02-23T05:32:33;100438.00;;;1.00
22322;BMP180;11328;53.928;18.522;2023-02-23T05:35:01;100437.00;;;0.90
22322;BMP180;11328;53.928;18.522;2023-02-23T05:37:28;100426.00;;;0.90
22322;BMP180;11328;53.928;18.522;2023-02-23T05:39:55;100417.00;;;0.80
22322;BMP180;11328;53.928;18.522;2023-02-23T05:42:22;100425.00;;;0.80
22322;BMP180;11328;53.928;18.522;2023-02-23T05:44:48;100430.00;;;0.80
22322;BMP180;11328;53.928;18.522;2023-02-23T05:47:15;100423.00;;;0.80
22322;BMP180;11328;53.928;18.522;2023-02-23T05:49:42;100420.00;;;0.80
22322;BMP180;11328;53.928;18.522;2023-02-23T05:52:11;100424.00;;;0.80
22322;BMP180;11328;53.928;18.522;2023-02-23T05:54:38;100418.00;;;0.80
22322;BMP180;11328;53.928;18.522;2023-02-23T05:57:05;100420.00;;;0.90
22322;BMP180;11328;53.928;18.522;2023-02-23T05:59:33;100418.00;;;0.90
22322;BMP180;11328;53.928;18.522;2023-02-23T06:02:01;100414.00;;;0.50
22322;BMP180;11328;53.928;18.522;2023-02-23T06:04:31;100407.00;;;0.90
22322;BMP180;11328;53.928;18.522;2023-02-23T06:06:58;100414.00;;;0.90
22322;BMP180;11328;53.928;18.522;2023-02-23T06:09:25;100409.00;;;0.90
22322;BMP180;11328;53.928;18.522;2023-02-23T06:11:52;100409.00;;;1.00
22322;BMP180;11328;53.928;18.522;2023-02-23T06:14:19;100410.00;;;0.90
22322;BMP180;11328;53.928;18.522;2023-02-23T06:16:46;100379.00;;;0.80
22322;BMP180;11328;53.928;18.522;2023-02-23T06:19:14;100398.00;;;0.90
22322;BMP180;11328;53.928;18.522;2023-02-23T06:21:41;100397.00;;;0.90
22322;BMP180;11328;53.928;18.522;2023-02-23T06:24:08;100402.00;;;0.90
22322;BMP180;11328;53.928;18.522;2023-02-23T06:26:35;100388.00;;;0.80
22322;BMP180;11328;53.928;18.522;2023-02-23T06:29:02;100381.00;;;0.90
22322;BMP180;11328;53.928;18.522;2023-02-23T06:31:30;100389.00;;;0.90
22322;BMP180;11328;53.928;18.522;2023-02-23T06:33:57;100388.00;;;0.90
22322;BMP180;11328;53.928;18.522;2023-02-23T06:36:24;100383.00;;;0.90
22322;BMP180;11328;53.928;18.522;2023-02-23T06:38:56;100382.00;;;0.90
22322;BMP180;11328;53.928;18.522;2023-02-23T06:41:26;100390.00;;;1.00
22322;BMP180;11328;53.928;18.522;2023-02-23T06:43:53;100397.00;;;0.90
22322;BMP180;11328;53.928;18.522;2023-02-23T06:46:20;100388.00;;;1.00
22322;BMP180;11328;53.928;18.522;2023-02-23T06:48:47;100384.00;;;1.10
22322;BMP180;11328;53.928;18.522;2023-02-23T06:51:14;100381.00;;;1.10
22322;BMP180;11328;53.928;18.522;2023-02-23T06:53:40;100381.00;;;1.10
22322;BMP180;11328;53.928;18.522;2023-02-23T06:56:07;100376.00;;;1.20
22322;BMP180;11328;53.928;18.522;2023-02-23T06:58:36;100380.00;;;1.20
22322;BMP180;11328;53.928;18.522;2023-02-23T07:01:04;100376.00;;;1.30
22322;BMP180;11328;53.928;18.522;2023-02-23T07:03:31;100374.00;;;1.30
22322;BMP180;11328;53.928;18.522;2023-02-23T07:05:58;100384.00;;;1.30
22322;BMP180;11328;53.928;18.522;2023-02-23T07:08:25;100368.00;;;1.40
22322;BMP180;11328;53.928;18.522;2023-02-23T07:10:52;100364.00;;;1.40
22322;BMP180;11328;53.928;18.522;2023-02-23T07:13:19;100360.00;;;1.40
22322;BMP180;11328;53.928;18.522;2023-02-23T07:15:47;100355.00;;;1.40
22322;BMP180;11328;53.928;18.522;2023-02-23T07:18:15;100349.00;;;1.40
22322;BMP180;11328;53.928;18.522;2023-02-23T07:20:41;100365.00;;;1.40
22322;BMP180;11328;53.928;18.522;2023-02-23T07:23:08;100349.00;;;1.50
22322;BMP180;11328;53.928;18.522;2023-02-23T07:25:35;100353.00;;;1.60
22322;BMP180;11328;53.928;18.522;2023-02-23T07:28:02;100360.00;;;1.60
22322;BMP180;11328;53.928;18.522;2023-02-23T07:30:29;100357.00;;;1.70
22322;BMP180;11328;53.928;18.522;2023-02-23T07:32:56;100354.00;;;1.70
22322;BMP180;11328;53.928;18.522;2023-02-23T07:35:23;100348.00;;;1.80
22322;BMP180;11328;53.928;18.522;2023-02-23T07:37:49;100351.00;;;1.80
22322;BMP180;11328;53.928;18.522;2023-02-23T07:40:18;100349.00;;;1.80
22322;BMP180;11328;53.928;18.522;2023-02-23T07:42:45;100345.00;;;2.00
22322;BMP180;11328;53.928;18.522;2023-02-23T07:45:11;100348.00;;;2.10
22322;BMP180;11328;53.928;18.522;2023-02-23T07:47:38;100347.00;;;2.10
22322;BMP180;11328;53.928;18.522;2023-02-23T07:50:06;100337.00;;;2.10
22322;BMP180;11328;53.928;18.522;2023-02-23T07:52:36;100343.00;;;2.20
22322;BMP180;11328;53.928;18.522;2023-02-23T07:55:05;100342.00;;;2.30
22322;BMP180;11328;53.928;18.522;2023-02-23T07:57:33;100338.00;;;2.40
22322;BMP180;11328;53.928;18.522;2023-02-23T08:00:00;100337.00;;;2.40
22322;BMP180;11328;53.928;18.522;2023-02-23T08:02:27;100352.00;;;2.50
22322;BMP180;11328;53.928;18.522;2023-02-23T08:04:55;100339.00;;;2.50
22322;BMP180;11328;53.928;18.522;2023-02-23T08:07:22;100349.00;;;2.70
22322;BMP180;11328;53.928;18.522;2023-02-23T08:09:50;100337.00;;;2.70
22322;BMP180;11328;53.928;18.522;2023-02-23T08:12:17;100341.00;;;2.70
22322;BMP180;11328;53.928;18.522;2023-02-23T08:14:44;100324.00;;;2.70
22322;BMP180;11328;53.928;18.522;2023-02-23T08:17:11;100332.00;;;2.80
22322;BMP180;11328;53.928;18.522;2023-02-23T08:19:38;100316.00;;;3.00
22322;BMP180;11328;53.928;18.522;2023-02-23T08:22:06;100319.00;;;3.00
22322;BMP180;11328;53.928;18.522;2023-02-23T08:24:37;100321.00;;;3.20
22322;BMP180;11328;53.928;18.522;2023-02-23T08:27:04;100312.00;;;3.30
22322;BMP180;11328;53.928;18.522;2023-02-23T08:29:31;100314.00;;;3.40
22322;BMP180;11328;53.928;18.522;2023-02-23T08:32:02;100303.00;;;3.50
22322;BMP180;11328;53.928;18.522;2023-02-23T08:34:30;100308.00;;;3.60
22322;BMP180;11328;53.928;18.522;2023-02-23T08:36:57;100301.00;;;3.50
22322;BMP180;11328;53.928;18.522;2023-02-23T08:39:24;100299.00;;;3.50
22322;BMP180;11328;53.928;18.522;2023-02-23T08:41:51;100299.00;;;3.50
22322;BMP180;11328;53.928;18.522;2023-02-23T08:44:21;100297.00;;;3.60
22322;BMP180;11328;53.928;18.522;2023-02-23T08:46:48;100298.00;;;3.60
22322;BMP180;11328;53.928;18.522;2023-02-23T08:49:15;100289.00;;;3.70
22322;BMP180;11328;53.928;18.522;2023-02-23T08:51:41;100290.00;;;3.80
22322;BMP180;11328;53.928;18.522;2023-02-23T08:54:08;100308.00;;;3.90
22322;BMP180;11328;53.928;18.522;2023-02-23T08:56:41;100300.00;;;4.00
22322;BMP180;11328;53.928;18.522;2023-02-23T08:59:08;100250.00;;;4.20
22322;BMP180;11328;53.928;18.522;2023-02-23T09:01:36;100289.00;;;4.10
22322;BMP180;11328;53.928;18.522;2023-02-23T09:04:04;100289.00;;;4.20
22322;BMP180;11328;53.928;18.522;2023-02-23T09:06:32;100292.00;;;4.30
22322;BMP180;11328;53.928;18.522;2023-02-23T09:09:01;100295.00;;;4.50
22322;BMP180;11328;53.928;18.522;2023-02-23T09:11:28;100288.00;;;4.60
22322;BMP180;11328;53.928;18.522;2023-02-23T09:13:55;100288.00;;;4.70
22322;BMP180;11328;53.928;18.522;2023-02-23T09:16:22;100285.00;;;4.70
22322;BMP180;11328;53.928;18.522;2023-02-23T09:18:48;100279.00;;;4.80
22322;BMP180;11328;53.928;18.522;2023-02-23T09:21:19;100293.00;;;4.80
22322;BMP180;11328;53.928;18.522;2023-02-23T09:23:51;100287.00;;;4.90
22322;BMP180;11328;53.928;18.522;2023-02-23T09:26:24;100287.00;;;5.00
22322;BMP180;11328;53.928;18.522;2023-02-23T09:28:55;100279.00;;;5.10
22322;BMP180;11328;53.928;18.522;2023-02-23T09:31:23;100276.00;;;5.00
22322;BMP180;11328;53.928;18.522;2023-02-23T09:33:51;100273.00;;;4.90
22322;BMP180;11328;53.928;18.522;2023-02-23T09:36:23;100266.00;;;5.00
22322;BMP180;11328;53.928;18.522;2023-02-23T09:38:53;100272.00;;;5.10
22322;BMP180;11328;53.928;18.522;2023-02-23T09:44:14;100281.00;;;5.30
22322;BMP180;11328;53.928;18.522;2023-02-23T09:49:41;100279.00;;;5.40
22322;BMP180;11328;53.928;18.522;2023-02-23T09:52:26;100266.00;;;5.30
22322;BMP180;11328;53.928;18.522;2023-02-23T09:54:57;100270.00;;;5.30
22322;BMP180;11328;53.928;18.522;2023-02-23T09:57:39;100276.00;;;5.30
22322;BMP180;11328;53.928;18.522;2023-02-23T10:00:21;100271.00;;;5.30
22322;BMP180;11328;53.928;18.522;2023-02-23T10:05:40;100268.00;;;5.50
22322;BMP180;11328;53.928;18.522;2023-02-23T10:08:28;100273.00;;;5.60
22322;BMP180;11328;53.928;18.522;2023-02-23T10:11:32;100269.00;;;5.50
22322;BMP180;11328;53.928;18.522;2023-02-23T10:22:44;100253.00;;;5.50
22322;BMP180;11328;53.928;18.522;2023-02-23T10:25:23;100224.00;;;5.50
22322;BMP180;11328;53.928;18.522;2023-02-23T10:27:53;100252.00;;;5.60
22322;BMP180;11328;53.928;18.522;2023-02-23T10:30:32;100253.00;;;5.50
22322;BMP180;11328;53.928;18.522;2023-02-23T10:35:30;100244.00;;;5.50
22322;BMP180;11328;53.928;18.522;2023-02-23T10:38:00;100246.00;;;5.60
22322;BMP180;11328;53.928;18.522;2023-02-23T10:40:32;100240.00;;;5.70
22322;BMP180;11328;53.928;18.522;2023-02-23T10:43:00;100244.00;;;5.70
22322;BMP180;11328;53.928;18.522;2023-02-23T10:45:35;100238.00;;;5.70
22322;BMP180;11328;53.928;18.522;2023-02-23T10:48:19;100238.00;;;5.70
22322;BMP180;11328;53.928;18.522;2023-02-23T10:50:52;100237.00;;;5.90
22322;BMP180;11328;53.928;18.522;2023-02-23T10:53:31;100221.00;;;5.90
22322;BMP180;11328;53.928;18.522;2023-02-23T10:56:15;100217.00;;;6.00
22322;BMP180;11328;53.928;18.522;2023-02-23T11:01:33;100214.00;;;6.20
22322;BMP180;11328;53.928;18.522;2023-02-23T11:04:26;100211.00;;;6.40
22322;BMP180;11328;53.928;18.522;2023-02-23T11:07:16;100206.00;;;6.60
22322;BMP180;11328;53.928;18.522;2023-02-23T11:09:44;100203.00;;;6.60
22322;BMP180;11328;53.928;18.522;2023-02-23T11:12:20;100202.00;;;6.70
22322;BMP180;11328;53.928;18.522;2023-02-23T11:14:56;100193.00;;;6.60
22322;BMP180;11328;53.928;18.522;2023-02-23T11:17:27;100192.00;;;6.70
22322;BMP180;11328;53.928;18.522;2023-02-23T11:22:41;100187.00;;;6.90
22322;BMP180;11328;53.928;18.522;2023-02-23T11:25:28;100175.00;;;6.90
22322;BMP180;11328;53.928;18.522;2023-02-23T11:27:56;100176.00;;;6.80
22322;BMP180;11328;53.928;18.522;2023-02-23T11:30:34;100172.00;;;6.90
22322;BMP180;11328;53.928;18.522;2023-02-23T11:33:04;100165.00;;;7.00
22322;BMP180;11328;53.928;18.522;2023-02-23T11:35:38;100165.00;;;7.10
22322;BMP180;11328;53.928;18.522;2023-02-23T11:41:22;100152.00;;;7.00
22322;BMP180;11328;53.928;18.522;2023-02-23T11:43:59;100148.00;;;6.90
22322;BMP180;11328;53.928;18.522;2023-02-23T11:46:36;100151.00;;;7.00
22322;BMP180;11328;53.928;18.522;2023-02-23T11:49:08;100143.00;;;6.80
22322;BMP180;11328;53.928;18.522;2023-02-23T11:51:46;100139.00;;;7.00
22322;BMP180;11328;53.928;18.522;2023-02-23T11:54:30;100113.00;;;6.90
22322;BMP180;11328;53.928;18.522;2023-02-23T11:56:59;100132.00;;;7.00
22322;BMP180;11328;53.928;18.522;2023-02-23T11:59:39;100114.00;;;7.00
22322;BMP180;11328;53.928;18.522;2023-02-23T12:04:45;100110.00;;;6.90
22322;BMP180;11328;53.928;18.522;2023-02-23T12:07:38;100107.00;;;7.00
22322;BMP180;11328;53.928;18.522;2023-02-23T12:10:33;100097.00;;;7.00
22322;BMP180;11328;53.928;18.522;2023-02-23T12:13:34;100098.00;;;7.00
22322;BMP180;11328;53.928;18.522;2023-02-23T12:16:25;100087.00;;;7.00
22322;BMP180;11328;53.928;18.522;2023-02-23T12:19:23;100106.00;;;7.10
22322;BMP180;11328;53.928;18.522;2023-02-23T12:22:12;100090.00;;;7.00
22322;BMP180;11328;53.928;18.522;2023-02-23T12:25:02;100090.00;;;7.00
22322;BMP180;11328;53.928;18.522;2023-02-23T12:27:52;100080.00;;;6.90
22322;BMP180;11328;53.928;18.522;2023-02-23T12:33:19;100074.00;;;6.90
22322;BMP180;11328;53.928;18.522;2023-02-23T12:36:00;100069.00;;;7.00
22322;BMP180;11328;53.928;18.522;2023-02-23T12:41:39;100061.00;;;7.20
22322;BMP180;11328;53.928;18.522;2023-02-23T12:44:29;100052.00;;;7.10
22322;BMP180;11328;53.928;18.522;2023-02-23T12:47:30;100057.00;;;7.10
22322;BMP180;11328;53.928;18.522;2023-02-23T12:53:00;100053.00;;;7.10
22322;BMP180;11328;53.928;18.522;2023-02-23T13:01:57;100033.00;;;7.30
22322;BMP180;11328;53.928;18.522;2023-02-23T13:07:50;100020.00;;;7.40
22322;BMP180;11328;53.928;18.522;2023-02-23T13:13:46;100008.00;;;7.50
22322;BMP180;11328;53.928;18.522;2023-02-23T13:16:34;99994.00;;;7.60
22322;BMP180;11328;53.928;18.522;2023-02-23T13:19:13;99994.00;;;7.60
22322;BMP180;11328;53.928;18.522;2023-02-23T13:21:49;99989.00;;;7.60
22322;BMP180;11328;53.928;18.522;2023-02-23T13:24:34;99984.00;;;7.60
22322;BMP180;11328;53.928;18.522;2023-02-23T13:27:22;99981.00;;;7.60
22322;BMP180;11328;53.928;18.522;2023-02-23T13:29:53;99968.00;;;7.60
22322;BMP180;11328;53.928;18.522;2023-02-23T13:32:28;99972.00;;;7.60
22322;BMP180;11328;53.928;18.522;2023-02-23T13:35:06;99964.00;;;7.70
22322;BMP180;11328;53.928;18.522;2023-02-23T13:40:41;99957.00;;;7.90
22322;BMP180;11328;53.928;18.522;2023-02-23T13:43:38;99958.00;;;7.80
22322;BMP180;11328;53.928;18.522;2023-02-23T13:49:27;99946.00;;;7.90
22322;BMP180;11328;53.928;18.522;2023-02-23T13:52:13;99947.00;;;8.00
22322;BMP180;11328;53.928;18.522;2023-02-23T13:54:56;99944.00;;;8.00
22322;BMP180;11328;53.928;18.522;2023-02-23T13:57:27;99943.00;;;7.90
22322;BMP180;11328;53.928;18.522;2023-02-23T13:59:54;99930.00;;;8.00
22322;BMP180;11328;53.928;18.522;2023-02-23T14:07:38;99918.00;;;7.80
22322;BMP180;11328;53.928;18.522;2023-02-23T14:10:28;99903.00;;;7.90
22322;BMP180;11328;53.928;18.522;2023-02-23T14:25:51;99892.00;;;7.70
22322;BMP180;11328;53.928;18.522;2023-02-23T14:28:32;99886.00;;;7.60
22322;BMP180;11328;53.928;18.522;2023-02-23T14:47:26;99878.00;;;8.10
22322;BMP180;11328;53.928;18.522;2023-02-23T14:49:58;99876.00;;;7.90
22322;BMP180;11328;53.928;18.522;2023-02-23T14:52:31;99866.00;;;7.70
22322;BMP180;11328;53.928;18.522;2023-02-23T14:55:27;99862.00;;;7.50
22322;BMP180;11328;53.928;18.522;2023-02-23T14:57:56;99863.00;;;7.50
22322;BMP180;11328;53.928;18.522;2023-02-23T15:00:29;99860.00;;;7.50
22322;BMP180;11328;53.928;18.522;2023-02-23T15:03:08;99855.00;;;7.40
22322;BMP180;11328;53.928;18.522;2023-02-23T15:05:50;99845.00;;;7.40
22322;BMP180;11328;53.928;18.522;2023-02-23T15:08:26;99844.00;;;7.40
22322;BMP180;11328;53.928;18.522;2023-02-23T15:11:10;99837.00;;;7.40
22322;BMP180;11328;53.928;18.522;2023-02-23T15:13:46;99832.00;;;7.40
22322;BMP180;11328;53.928;18.522;2023-02-23T15:16:28;99826.00;;;7.40
22322;BMP180;11328;53.928;18.522;2023-02-23T15:18:59;99823.00;;;7.40
22322;BMP180;11328;53.928;18.522;2023-02-23T15:21:27;99822.00;;;7.40
22322;BMP180;11328;53.928;18.522;2023-02-23T15:24:10;99826.00;;;7.30
22322;BMP180;11328;53.928;18.522;2023-02-23T15:26:40;99794.00;;;7.30
22322;BMP180;11328;53.928;18.522;2023-02-23T15:31:41;99839.00;;;7.30
22322;BMP180;11328;53.928;18.522;2023-02-23T15:34:22;99839.00;;;7.30
22322;BMP180;11328;53.928;18.522;2023-02-23T15:36:56;99841.00;;;7.40
22322;BMP180;11328;53.928;18.522;2023-02-23T15:39:55;99840.00;;;7.60
22322;BMP180;11328;53.928;18.522;2023-02-23T15:56:28;99796.00;;;8.70
22322;BMP180;11328;53.928;18.522;2023-02-23T15:59:02;99798.00;;;8.50
22322;BMP180;11328;53.928;18.522;2023-02-23T16:01:31;99795.00;;;8.30
22322;BMP180;11328;53.928;18.522;2023-02-23T16:04:15;99792.00;;;8.20
22322;BMP180;11328;53.928;18.522;2023-02-23T16:07:06;99803.00;;;8.10
22322;BMP180;11328;53.928;18.522;2023-02-23T16:09:37;99802.00;;;8.10
22322;BMP180;11328;53.928;18.522;2023-02-23T16:12:13;99790.00;;;8.00
22322;BMP180;11328;53.928;18.522;2023-02-23T16:14:58;99784.00;;;8.10
22322;BMP180;11328;53.928;18.522;2023-02-23T16:20:47;99777.00;;;7.80
22322;BMP180;11328;53.928;18.522;2023-02-23T16:23:35;99770.00;;;7.80
22322;BMP180;11328;53.928;18.522;2023-02-23T16:26:22;99787.00;;;7.70
22322;BMP180;11328;53.928;18.522;2023-02-23T16:28:59;99755.00;;;7.70
22322;BMP180;11328;53.928;18.522;2023-02-23T16:31:59;99765.00;;;7.80
22322;BMP180;11328;53.928;18.522;2023-02-23T16:34:46;99765.00;;;7.80
22322;BMP180;11328;53.928;18.522;2023-02-23T16:37:23;99770.00;;;7.80
22322;BMP180;11328;53.928;18.522;2023-02-23T16:39:52;99759.00;;;7.70
22322;BMP180;11328;53.928;18.522;2023-02-23T16:42:29;99754.00;;;7.70
22322;BMP180;11328;53.928;18.522;2023-02-23T16:44:58;99744.00;;;7.70
22322;BMP180;11328;53.928;18.522;2023-02-23T16:47:45;99748.00;;;7.60
22322;BMP180;11328;53.928;18.522;2023-02-23T16:50:22;99735.00;;;7.50
22322;BMP180;11328;53.928;18.522;2023-02-23T16:52:53;99723.00;;;7.50
22322;BMP180;11328;53.928;18.522;2023-02-23T16:55:25;99722.00;;;7.40
22322;BMP180;11328;53.928;18.522;2023-02-23T16:57:58;99715.00;;;7.30
22322;BMP180;11328;53.928;18.522;2023-02-23T17:00:30;99715.00;;;7.20
22322;BMP180;11328;53.928;18.522;2023-02-23T17:02:58;99718.00;;;7.30
22322;BMP180;11328;53.928;18.522;2023-02-23T17:05:28;99722.00;;;7.20